createdAt,value
2019-01-13T00:06:30.354Z,1.42
2019-01-13T00:09:18.725Z,1.50
2019-01-13T00:12:07.227Z,2.20
2019-01-13T00:21:17.823Z,1.65
2019-01-13T00:36:21.916Z,1.77
2019-01-13T00:38:51.239Z,1.55
2019-01-13T00:41:39.706Z,0.90
2019-01-13T00:44:09.233Z,2.02
2019-01-13T00:46:57.602Z,1.10
2019-01-13T00:55:26.271Z,1.10
2019-01-13T00:58:14.716Z,2.00
2019-01-13T01:06:53.723Z,1.42
2019-01-13T01:09:42.126Z,2.70
2019-01-13T01:21:26.906Z,1.55
2019-01-13T01:24:15.278Z,1.65
2019-01-13T01:27:03.650Z,2.75
2019-01-13T01:29:33.098Z,1.75
2019-01-13T01:32:21.474Z,1.77
2019-01-13T01:34:50.894Z,1.80
2019-01-13T01:37:39.310Z,1.20
2019-01-13T01:46:19.024Z,1.10
2019-01-13T01:49:07.442Z,1.42
2019-01-13T01:51:51.787Z,0.90
2019-01-13T02:40:53.708Z,1.20
2019-01-13T02:43:42.212Z,1.50
2019-01-13T04:15:46.799Z,0.90
2019-01-13T04:18:34.643Z,0.90
2019-01-13T04:21:27.615Z,0.98
2019-01-13T04:33:27.203Z,1.07
2019-01-13T04:36:15.579Z,1.00
2019-01-13T04:44:55.483Z,0.75
2019-01-13T04:47:43.913Z,1.17
2019-01-13T05:08:44.695Z,1.17
2019-01-13T05:11:33.069Z,0.95
2019-01-13T05:14:02.411Z,0.90
2019-01-13T05:16:31.727Z,1.52
2019-01-13T05:19:20.109Z,1.17
2019-01-13T05:28:00.275Z,1.00
2019-01-13T05:30:29.598Z,1.55
2019-01-13T05:33:18.117Z,1.02
2019-01-13T05:36:06.482Z,0.93
2019-01-13T05:47:51.712Z,1.20
2019-01-13T05:50:21.228Z,0.90
2019-01-13T05:52:52.425Z,1.70
2019-01-13T05:55:40.894Z,0.85
2019-01-13T05:58:29.311Z,1.07
2019-01-13T06:07:09.492Z,1.17
2019-01-13T06:09:57.943Z,1.10
2019-01-13T06:12:46.362Z,1.25
2019-01-13T06:30:41.783Z,1.10
2019-01-13T06:33:30.151Z,1.52
2019-01-13T06:57:35.454Z,2.25
2019-01-13T07:00:08.046Z,1.45
2019-01-13T07:02:56.618Z,1.25
2019-01-13T07:05:45.028Z,1.00
2019-01-13T07:11:19.351Z,1.05
2019-01-13T07:14:07.781Z,1.20
2019-01-13T07:22:48.047Z,2.00
2019-01-13T07:25:36.538Z,2.60
2019-01-13T07:28:20.979Z,1.00
2019-01-13T07:34:10.969Z,0.98
2019-01-13T07:39:23.532Z,1.35
2019-01-13T07:42:11.906Z,1.07
2019-01-13T07:53:57.220Z,0.98
2019-01-13T07:56:45.747Z,1.72
2019-01-13T07:59:34.234Z,1.60
2019-01-13T08:02:03.595Z,1.42
2019-01-13T08:04:51.999Z,1.20
2019-01-13T08:07:21.426Z,1.47
2019-01-13T08:10:10.966Z,1.05
2019-01-13T08:12:59.299Z,1.10
2019-01-13T08:15:47.698Z,0.93
2019-01-13T08:21:21.898Z,1.90
2019-01-13T08:24:10.271Z,0.85
2019-01-13T08:26:39.631Z,1.40
2019-01-13T08:29:28.074Z,1.10
2019-01-13T08:35:02.955Z,2.10
2019-01-13T08:37:51.370Z,1.95
2019-01-13T08:49:36.607Z,1.70
2019-01-13T08:58:16.660Z,1.47
2019-01-13T09:01:05.051Z,1.20
2019-01-13T09:03:53.794Z,1.35
2019-01-13T09:15:38.826Z,2.05
2019-01-13T09:18:27.198Z,1.90
2019-01-13T09:21:15.610Z,1.30
2019-01-13T09:33:00.710Z,1.60
2019-01-13T09:35:49.107Z,1.67
2019-01-13T09:38:37.474Z,1.25
2019-01-13T09:47:16.949Z,1.22
2019-01-13T09:50:05.835Z,1.65
2019-01-13T09:52:35.219Z,1.02
2019-01-13T09:55:23.922Z,1.40
2019-01-13T10:25:39.799Z,1.40
2019-01-13T10:28:28.178Z,1.52
2019-01-13T10:31:03.105Z,1.25
2019-01-13T10:33:28.590Z,1.92
2019-01-13T10:35:57.916Z,1.35
2019-01-13T10:38:27.242Z,1.85
2019-01-13T10:41:15.675Z,1.70
2019-01-13T10:50:32.703Z,2.45
2019-01-13T11:11:33.502Z,1.67
2019-01-13T11:14:21.879Z,2.02
2019-01-13T11:20:20.106Z,1.12
2019-01-13T11:25:54.850Z,1.92
2019-01-13T11:28:43.327Z,2.20
2019-01-13T11:31:31.769Z,1.90
2019-01-13T11:49:27.284Z,2.15
2019-01-13T11:52:15.790Z,2.05
2019-01-13T11:55:04.519Z,2.20
2019-01-13T12:03:44.483Z,1.90
2019-01-13T12:06:32.865Z,1.92
2019-01-13T12:09:21.262Z,1.32
2019-01-13T12:30:23.820Z,1.72
2019-01-13T12:33:12.211Z,2.17
2019-01-13T12:36:00.608Z,1.95
2019-01-13T12:41:34.644Z,2.20
2019-01-13T12:44:23.027Z,1.90
2019-01-13T13:51:42.350Z,2.55
2019-01-13T13:57:45.500Z,3.25
2019-01-13T14:06:24.917Z,2.60
2019-01-13T14:09:13.298Z,2.52
2019-01-13T14:20:59.464Z,3.10
2019-01-13T14:23:28.838Z,2.87
2019-01-13T14:26:17.247Z,2.65
2019-01-13T14:34:50.200Z,2.45
2019-01-13T14:37:38.570Z,2.27
2019-01-13T14:40:10.795Z,2.75
2019-01-13T14:42:40.171Z,2.70
2019-01-13T14:45:28.594Z,2.67
2019-01-13T14:54:08.107Z,2.55
2019-01-13T14:56:37.422Z,2.30
2019-01-13T14:59:06.806Z,3.83
2019-01-13T15:01:36.134Z,2.42
2019-01-13T15:04:05.545Z,2.83
2019-01-13T15:06:53.986Z,2.70
2019-01-13T15:09:23.356Z,4.75
2019-01-13T15:12:11.799Z,2.65
2019-01-13T15:14:41.119Z,3.47
2019-01-13T15:17:10.582Z,2.52
2019-01-13T15:19:39.928Z,2.95
2019-01-13T15:22:09.269Z,3.47
2019-01-13T15:24:38.995Z,3.25
2019-01-13T15:27:27.403Z,3.60
2019-01-13T15:36:07.310Z,2.25
2019-01-13T15:38:37.950Z,2.30
2019-01-13T15:41:07.331Z,3.45
2019-01-13T15:43:55.722Z,3.37
2019-01-13T15:46:25.075Z,1.90
2019-01-13T15:49:13.526Z,3.12
2019-01-13T15:51:42.943Z,2.45
2019-01-13T15:54:12.270Z,2.50
2019-01-13T15:56:41.609Z,2.62
2019-01-13T15:59:10.935Z,2.10
2019-01-13T16:01:59.396Z,2.02
2019-01-13T16:04:52.423Z,3.10
2019-01-13T16:16:51.159Z,1.72
2019-01-13T16:19:39.564Z,2.67
2019-01-13T16:22:08.967Z,3.00
2019-01-13T16:24:38.278Z,2.62
2019-01-13T16:27:07.604Z,2.22
2019-01-13T16:29:36.925Z,1.70
2019-01-13T16:32:06.246Z,1.80
2019-01-13T16:34:54.639Z,2.65
2019-01-13T16:37:23.971Z,1.82
2019-01-13T16:39:53.307Z,1.75
2019-01-13T16:42:22.630Z,2.75
2019-01-13T16:44:52.076Z,2.83
2019-01-13T16:47:21.399Z,3.83
2019-01-13T16:49:50.800Z,3.67
2019-01-13T16:52:20.135Z,3.52
2019-01-13T16:54:49.546Z,2.45
2019-01-13T16:57:18.892Z,3.50
2019-01-13T16:59:48.224Z,2.20
2019-01-13T17:02:17.650Z,2.45
2019-01-13T17:05:06.150Z,3.17
2019-01-13T17:07:35.495Z,3.30
2019-01-13T17:10:24.531Z,3.30
2019-01-13T17:22:23.651Z,2.55
2019-01-13T17:24:52.970Z,2.20
2019-01-13T17:27:22.299Z,4.42
2019-01-13T17:29:51.626Z,4.55
2019-01-13T17:32:20.958Z,2.15
2019-01-13T17:34:50.287Z,3.20
2019-01-13T17:37:19.610Z,4.12
2019-01-13T17:39:48.952Z,2.60
2019-01-13T17:42:18.273Z,3.33
2019-01-13T17:44:47.607Z,3.62
2019-01-13T17:47:16.930Z,3.02
2019-01-13T17:49:46.267Z,3.67
2019-01-13T17:52:15.601Z,4.83
2019-01-13T17:54:44.931Z,5.28
2019-01-13T17:57:14.255Z,5.28
2019-01-13T17:59:43.634Z,7.20
2019-01-13T18:02:12.998Z,8.40
2019-01-13T18:04:43.220Z,4.83
2019-01-13T18:07:12.843Z,4.95
2019-01-13T18:09:42.247Z,4.60
2019-01-13T18:12:11.575Z,3.72
2019-01-13T18:14:40.906Z,4.72
2019-01-13T18:17:10.235Z,4.95
2019-01-13T18:19:39.559Z,3.45
2019-01-13T18:28:19.851Z,3.67
2019-01-13T18:30:49.252Z,3.40
2019-01-13T18:33:18.583Z,4.17
2019-01-13T18:35:47.958Z,3.87
2019-01-13T18:38:36.391Z,3.12
2019-01-13T18:41:05.730Z,4.85
2019-01-13T18:43:35.038Z,2.40
2019-01-13T18:46:04.370Z,2.83
2019-01-13T18:48:33.707Z,2.92
2019-01-13T18:51:03.234Z,3.27
2019-01-13T18:53:32.643Z,2.40
2019-01-13T18:56:01.987Z,4.00
2019-01-13T18:58:31.379Z,2.98
2019-01-13T19:01:00.736Z,3.75
2019-01-13T19:03:30.062Z,2.33
2019-01-13T19:05:59.394Z,3.30
2019-01-13T19:08:28.752Z,4.03
2019-01-13T19:11:22.312Z,2.22
2019-01-13T19:14:18.827Z,2.65
2019-01-13T19:17:08.247Z,4.55
2019-01-13T19:20:02.620Z,2.95
2019-01-13T19:22:33.544Z,3.45
2019-01-13T19:25:09.412Z,3.05
2019-01-13T19:27:38.953Z,2.92
2019-01-13T19:30:10.207Z,2.22
2019-01-13T19:32:39.538Z,1.50
2019-01-13T19:35:27.914Z,3.58
2019-01-13T19:38:16.420Z,2.98
2019-01-13T19:40:45.750Z,2.08
2019-01-13T19:43:34.151Z,2.10
2019-01-13T19:46:22.542Z,2.20
2019-01-13T19:48:52.406Z,2.67
2019-01-13T19:51:21.726Z,2.30
2019-01-13T19:53:51.190Z,4.20
2019-01-13T19:56:39.566Z,2.27
2019-01-13T20:02:25.663Z,1.77
2019-01-13T20:11:19.002Z,2.80
2019-01-13T20:14:07.376Z,3.05
2019-01-13T20:16:55.791Z,2.67
2019-01-13T20:22:29.648Z,2.90
2019-01-13T20:25:18.252Z,2.55
2019-01-13T20:30:52.454Z,2.45
2019-01-13T20:33:40.866Z,1.82
2019-01-13T20:57:24.833Z,1.37
2019-01-13T21:00:15.430Z,2.85
2019-01-13T21:03:03.870Z,1.75
2019-01-13T21:05:33.195Z,2.40
2019-01-13T21:08:02.539Z,1.92
2019-01-13T21:10:31.876Z,3.75
2019-01-13T21:13:01.290Z,1.37
2019-01-13T21:15:32.461Z,2.95
2019-01-13T21:18:01.787Z,2.05
2019-01-13T21:20:31.154Z,1.85
2019-01-13T21:23:00.486Z,2.33
2019-01-13T21:25:29.821Z,1.57
2019-01-13T21:28:00.535Z,1.95
2019-01-13T21:30:30.768Z,1.85
2019-01-13T21:33:00.122Z,2.52
2019-01-13T21:35:33.868Z,1.92
2019-01-13T21:38:00.489Z,1.95
2019-01-13T21:40:29.818Z,1.62
2019-01-13T21:42:59.150Z,1.92
2019-01-13T21:45:28.471Z,0.88
2019-01-13T21:47:57.857Z,1.47
2019-01-13T21:50:27.318Z,2.70
2019-01-13T21:52:56.722Z,2.22
2019-01-13T21:55:26.070Z,1.70
2019-01-13T21:57:55.394Z,0.93
2019-01-13T22:00:26.200Z,1.20
2019-01-13T22:02:56.157Z,1.30
2019-01-13T22:05:25.539Z,1.22
2019-01-13T22:07:54.886Z,0.88
2019-01-13T22:10:24.695Z,0.70
2019-01-13T22:12:54.094Z,2.20
2019-01-13T22:15:23.524Z,1.30
2019-01-13T22:17:52.852Z,0.75
2019-01-13T22:20:23.371Z,0.80
2019-01-13T22:22:53.237Z,1.00
2019-01-13T22:25:22.672Z,0.95
2019-01-13T22:27:52.054Z,0.70
2019-01-13T22:30:22.766Z,0.75
2019-01-13T22:32:52.316Z,1.35
2019-01-13T22:35:21.642Z,0.93
2019-01-13T22:37:55.482Z,1.05
2019-01-13T22:40:22.124Z,0.60
2019-01-13T22:42:51.534Z,0.65
2019-01-13T22:45:22.913Z,0.88
2019-01-13T22:47:52.274Z,0.65
2019-01-13T22:50:21.846Z,0.60
2019-01-13T22:52:51.214Z,0.60
2019-01-13T22:55:20.550Z,0.80
2019-01-13T22:57:49.874Z,0.60
2019-01-13T23:00:58.292Z,1.37
2019-01-13T23:03:46.289Z,0.50
2019-01-13T23:06:15.720Z,0.60
2019-01-13T23:08:45.143Z,0.40
2019-01-13T23:11:14.575Z,0.88
2019-01-13T23:13:44.002Z,0.53
2019-01-13T23:16:13.428Z,0.95
2019-01-13T23:18:42.885Z,0.90
2019-01-13T23:21:12.319Z,0.50
2019-01-13T23:23:41.742Z,0.40
2019-01-13T23:26:11.167Z,0.60
2019-01-13T23:28:40.604Z,0.50
2019-01-13T23:31:10.034Z,0.72
2019-01-13T23:33:39.450Z,0.40
2019-01-13T23:36:08.875Z,0.53
2019-01-13T23:38:38.311Z,0.50
2019-01-13T23:41:07.743Z,1.12
2019-01-13T23:43:37.202Z,0.75
2019-01-13T23:46:06.627Z,0.55
2019-01-13T23:48:36.051Z,0.50
2019-01-13T23:51:05.677Z,0.50
2019-01-13T23:53:35.107Z,0.40
2019-01-13T23:56:04.530Z,0.50
2019-01-13T23:58:33.984Z,0.50
